createdAt,value
2023-02-02T00:01:39.374Z,4.20
2023-02-02T00:04:07.074Z,4.05
2023-02-02T00:06:34.546Z,3.53
2023-02-02T00:09:04.404Z,3.42
2023-02-02T00:11:32.133Z,4.25
2023-02-02T00:14:01.002Z,3.45
2023-02-02T00:16:31.009Z,3.47
2023-02-02T00:19:00.446Z,4.30
2023-02-02T00:21:28.258Z,4.60
2023-02-02T00:23:55.883Z,4.47
2023-02-02T00:26:23.240Z,5.07
2023-02-02T00:28:52.329Z,3.83
2023-02-02T00:31:19.926Z,4.25
2023-02-02T00:33:48.866Z,3.67
2023-02-02T00:36:17.000Z,4.18
2023-02-02T00:38:47.614Z,3.95
2023-02-02T00:41:15.711Z,3.42
2023-02-02T00:43:43.833Z,3.60
2023-02-02T00:46:17.095Z,4.05
2023-02-02T00:48:44.318Z,3.85
2023-02-02T00:51:12.435Z,3.50
2023-02-02T00:53:41.017Z,3.20
2023-02-02T00:56:08.419Z,3.53
2023-02-02T00:58:36.665Z,3.42
2023-02-02T01:01:04.260Z,3.15
2023-02-02T01:03:31.575Z,4.10
2023-02-02T01:05:58.929Z,4.22
2023-02-02T01:08:26.505Z,3.03
2023-02-02T01:10:54.107Z,2.95
2023-02-02T01:13:22.770Z,2.97
2023-02-02T01:15:50.056Z,3.08
2023-02-02T01:18:17.233Z,3.75
2023-02-02T01:20:44.281Z,3.40
2023-02-02T01:23:12.543Z,3.33
2023-02-02T01:25:39.488Z,3.17
2023-02-02T01:28:08.798Z,3.30
2023-02-02T01:30:37.214Z,3.38
2023-02-02T01:33:04.375Z,3.92
2023-02-02T01:35:32.414Z,3.20
2023-02-02T01:38:01.280Z,3.63
2023-02-02T01:40:32.641Z,3.05
2023-02-02T01:43:00.993Z,3.27
2023-02-02T01:45:29.585Z,3.78
2023-02-02T01:47:59.885Z,3.05
2023-02-02T01:50:31.363Z,3.75
2023-02-02T01:53:01.621Z,3.83
2023-02-02T01:55:30.943Z,3.33
2023-02-02T01:58:03.598Z,2.60
2023-02-02T02:00:30.907Z,3.45
2023-02-02T02:03:06.935Z,4.18
2023-02-02T02:05:43.659Z,3.05
2023-02-02T02:08:34.874Z,3.38
2023-02-02T02:11:02.780Z,4.22
2023-02-02T02:13:51.266Z,4.35
2023-02-02T02:16:42.660Z,3.65
2023-02-02T02:19:29.453Z,3.53
2023-02-02T02:22:35.659Z,3.88
2023-02-02T02:25:54.289Z,3.00
2023-02-02T02:28:43.519Z,2.95
2023-02-02T02:31:35.430Z,3.67
2023-02-02T02:34:03.875Z,3.30
2023-02-02T02:36:52.309Z,3.35
2023-02-02T02:39:29.785Z,3.72
2023-02-02T02:42:00.960Z,2.88
2023-02-02T02:44:29.450Z,3.67
2023-02-02T02:46:57.263Z,3.35
2023-02-02T02:49:24.744Z,3.97
2023-02-02T02:51:53.711Z,2.67
2023-02-02T02:54:31.288Z,3.53
2023-02-02T02:57:11.403Z,2.97
2023-02-02T03:00:06.147Z,3.22
2023-02-02T03:02:49.972Z,4.13
2023-02-02T03:05:20.004Z,3.20
2023-02-02T03:08:15.205Z,3.80
2023-02-02T03:10:46.945Z,3.13
2023-02-02T03:13:16.849Z,3.35
2023-02-02T03:15:48.184Z,3.20
2023-02-02T03:18:19.231Z,4.20
2023-02-02T03:20:47.052Z,3.15
2023-02-02T03:23:14.764Z,2.80
2023-02-02T03:25:41.917Z,3.60
2023-02-02T03:28:09.949Z,3.05
2023-02-02T03:30:38.446Z,3.50
2023-02-02T03:33:07.570Z,3.97
2023-02-02T03:35:34.630Z,2.80
2023-02-02T03:38:01.810Z,3.38
2023-02-02T03:40:29.898Z,3.13
2023-02-02T03:42:58.144Z,3.25
2023-02-02T03:45:28.100Z,4.38
2023-02-02T03:47:55.112Z,3.45
2023-02-02T03:50:22.338Z,3.55
2023-02-02T03:52:49.228Z,3.20
2023-02-02T03:55:16.191Z,2.85
2023-02-02T03:57:44.030Z,3.13
2023-02-02T04:00:11.757Z,2.95
2023-02-02T04:02:41.548Z,3.90
2023-02-02T04:05:08.905Z,3.30
2023-02-02T04:07:36.912Z,3.05
2023-02-02T04:10:05.095Z,3.22
2023-02-02T04:12:32.078Z,3.63
2023-02-02T04:15:00.258Z,3.05
2023-02-02T04:17:27.380Z,4.20
2023-02-02T04:19:58.263Z,3.17
2023-02-02T04:22:26.320Z,3.85
2023-02-02T04:24:53.322Z,3.00
2023-02-02T04:27:20.505Z,3.22
2023-02-02T04:29:47.634Z,2.58
2023-02-02T04:32:16.297Z,2.80
2023-02-02T04:34:43.721Z,3.47
2023-02-02T04:37:12.053Z,2.55
2023-02-02T04:39:39.065Z,3.13
2023-02-02T04:42:06.040Z,2.88
2023-02-02T04:44:33.028Z,3.22
2023-02-02T04:47:00.160Z,2.80
2023-02-02T04:49:27.231Z,3.17
2023-02-02T04:51:54.206Z,3.85
2023-02-02T04:54:21.134Z,3.83
2023-02-02T04:56:47.991Z,3.10
2023-02-02T04:59:14.905Z,2.88
2023-02-02T05:01:41.930Z,3.40
2023-02-02T05:04:08.975Z,3.40
2023-02-02T05:06:35.949Z,2.97
2023-02-02T05:09:03.154Z,3.75
2023-02-02T05:11:31.023Z,3.05
2023-02-02T05:13:58.032Z,3.17
2023-02-02T05:16:28.511Z,2.53
2023-02-02T05:18:57.931Z,3.55
2023-02-02T05:21:25.170Z,3.03
2023-02-02T05:23:52.163Z,3.83
2023-02-02T05:26:24.369Z,2.58
2023-02-02T05:31:19.888Z,2.47
2023-02-02T05:33:46.815Z,2.30
2023-02-02T05:36:15.013Z,2.30
2023-02-02T05:38:41.925Z,2.88
2023-02-02T05:41:09.026Z,3.05
2023-02-02T05:43:36.066Z,3.75
2023-02-02T05:46:03.022Z,2.95
2023-02-02T05:48:30.563Z,3.03
2023-02-02T05:51:01.227Z,2.60
2023-02-02T05:53:30.257Z,2.95
2023-02-02T05:55:57.449Z,2.50
2023-02-02T05:58:24.754Z,3.35
2023-02-02T06:00:56.677Z,2.70
2023-02-02T06:05:51.517Z,2.97
2023-02-02T06:08:19.869Z,2.80
2023-02-02T06:10:46.921Z,3.08
2023-02-02T06:13:14.173Z,2.50
2023-02-02T06:15:43.160Z,3.00
2023-02-02T06:18:10.331Z,3.35
2023-02-02T06:20:37.601Z,2.42
2023-02-02T06:23:05.194Z,3.05
2023-02-02T06:25:32.480Z,3.22
2023-02-02T06:28:00.906Z,2.90
2023-02-02T06:30:28.388Z,2.97
2023-02-02T06:32:55.430Z,3.53
2023-02-02T06:35:22.853Z,4.03
2023-02-02T06:37:50.899Z,3.60
2023-02-02T06:40:18.199Z,3.25
2023-02-02T06:42:45.117Z,3.50
2023-02-02T06:45:12.414Z,4.10
2023-02-02T06:47:39.370Z,3.55
2023-02-02T06:50:09.833Z,3.00
2023-02-02T06:52:37.020Z,4.82
2023-02-02T06:55:04.062Z,3.63
2023-02-02T06:57:32.717Z,3.78
2023-02-02T06:59:59.649Z,4.13
2023-02-02T07:02:26.606Z,3.75
2023-02-02T07:04:53.789Z,3.53
2023-02-02T07:07:20.896Z,4.20
2023-02-02T07:09:57.771Z,4.35
2023-02-02T07:12:26.913Z,4.03
2023-02-02T07:14:54.272Z,3.33
2023-02-02T07:17:21.266Z,4.10
2023-02-02T07:19:48.268Z,3.50
2023-02-02T07:22:16.345Z,4.18
2023-02-02T07:24:43.370Z,4.15
2023-02-02T07:27:10.370Z,3.80
2023-02-02T07:29:37.346Z,3.83
2023-02-02T07:32:04.673Z,3.63
2023-02-02T07:34:31.713Z,3.88
2023-02-02T07:37:00.154Z,3.78
2023-02-02T07:39:27.352Z,4.55
2023-02-02T07:41:56.031Z,3.88
2023-02-02T07:44:30.963Z,5.22
2023-02-02T07:46:57.920Z,4.88
2023-02-02T07:49:25.022Z,4.63
2023-02-02T07:51:53.078Z,3.88
2023-02-02T07:54:20.545Z,4.45
2023-02-02T07:56:47.568Z,5.20
2023-02-02T07:59:14.845Z,4.50
2023-02-02T08:01:42.277Z,3.38
2023-02-02T08:04:11.970Z,4.03
2023-02-02T08:06:40.273Z,4.45
2023-02-02T08:09:08.978Z,5.85
2023-02-02T08:11:37.362Z,5.20
2023-02-02T08:14:05.735Z,6.18
2023-02-02T08:16:33.928Z,5.65
2023-02-02T08:19:01.116Z,4.38
2023-02-02T08:21:28.050Z,4.93
2023-02-02T08:23:55.259Z,4.97
2023-02-02T08:26:25.689Z,5.68
2023-02-02T08:28:56.103Z,4.50
2023-02-02T08:31:32.564Z,5.43
2023-02-02T08:34:00.019Z,4.28
2023-02-02T08:36:28.488Z,4.30
2023-02-02T08:38:55.438Z,3.97
2023-02-02T08:41:23.974Z,4.15
2023-02-02T08:43:51.810Z,4.50
2023-02-02T08:46:21.280Z,4.40
2023-02-02T08:48:48.952Z,3.33
2023-02-02T08:51:18.892Z,4.40
2023-02-02T08:53:48.000Z,3.65
2023-02-02T08:56:20.606Z,4.00
2023-02-02T08:58:55.815Z,3.70
2023-02-02T09:01:28.573Z,3.20
2023-02-02T09:03:57.991Z,3.00
2023-02-02T09:06:37.913Z,3.45
2023-02-02T09:09:06.706Z,2.63
2023-02-02T09:11:34.092Z,3.60
2023-02-02T09:14:06.390Z,3.38
2023-02-02T09:16:34.497Z,3.28
2023-02-02T09:19:02.442Z,3.33
2023-02-02T09:21:33.677Z,2.47
2023-02-02T09:24:01.142Z,3.15
2023-02-02T09:26:29.788Z,3.47
2023-02-02T09:29:04.809Z,2.47
2023-02-02T09:31:34.992Z,3.08
2023-02-02T09:34:03.601Z,2.60
2023-02-02T09:36:30.689Z,2.28
2023-02-02T09:38:58.242Z,2.65
2023-02-02T09:41:38.421Z,3.33
2023-02-02T09:44:39.322Z,2.75
2023-02-02T09:47:29.071Z,2.97
2023-02-02T09:50:21.792Z,2.75
2023-02-02T09:53:23.018Z,2.35
2023-02-02T09:55:57.141Z,3.00
2023-02-02T09:59:02.165Z,2.60
2023-02-02T10:01:39.120Z,2.63
2023-02-02T10:04:18.935Z,2.75
2023-02-02T10:06:56.575Z,2.60
2023-02-02T10:09:36.995Z,2.72
2023-02-02T10:12:07.267Z,3.00
2023-02-02T10:15:00.017Z,2.70
2023-02-02T10:17:38.969Z,2.78
2023-02-02T10:20:44.728Z,3.00
2023-02-02T10:23:28.374Z,2.30
2023-02-02T10:26:13.929Z,2.78
2023-02-02T10:29:02.690Z,2.83
2023-02-02T10:31:38.752Z,2.30
2023-02-02T10:34:25.909Z,2.50
2023-02-02T10:37:14.071Z,2.80
2023-02-02T10:40:03.287Z,2.42
2023-02-02T10:43:14.372Z,2.60
2023-02-02T10:45:43.773Z,1.85
2023-02-02T10:48:25.761Z,3.35
2023-02-02T10:50:56.974Z,2.60
2023-02-02T10:53:28.621Z,2.47
2023-02-02T10:56:15.486Z,2.05
2023-02-02T10:59:15.913Z,2.75
2023-02-02T11:01:43.094Z,3.58
2023-02-02T11:04:29.835Z,2.70
2023-02-02T11:06:56.977Z,3.00
2023-02-02T11:09:31.546Z,2.35
2023-02-02T11:12:06.961Z,3.05
2023-02-02T11:14:45.772Z,2.10
2023-02-02T11:17:26.425Z,2.53
2023-02-02T11:19:56.136Z,2.10
2023-02-02T11:22:28.791Z,1.90
2023-02-02T11:24:57.109Z,2.67
2023-02-02T11:27:41.698Z,1.85
2023-02-02T11:30:38.721Z,2.00
2023-02-02T11:33:34.912Z,1.90
2023-02-02T11:36:05.022Z,1.70
2023-02-02T11:38:32.606Z,2.97
2023-02-02T11:41:06.846Z,2.00
2023-02-02T11:43:59.537Z,1.65
2023-02-02T11:46:31.262Z,3.33
2023-02-02T11:49:03.313Z,2.10
2023-02-02T11:51:31.803Z,2.42
2023-02-02T11:54:17.769Z,2.15
2023-02-02T11:56:51.774Z,2.00
2023-02-02T11:59:43.697Z,2.25
2023-02-02T12:02:19.759Z,2.00
2023-02-02T12:04:52.468Z,1.52
2023-02-02T12:07:29.509Z,2.47
2023-02-02T12:10:04.805Z,2.40
2023-02-02T12:13:00.564Z,2.17
2023-02-02T12:16:08.826Z,1.95
2023-02-02T12:18:36.165Z,1.90
2023-02-02T12:21:07.264Z,2.28
2023-02-02T12:24:11.792Z,2.10
2023-02-02T12:26:46.275Z,1.50
2023-02-02T12:29:48.565Z,2.28
2023-02-02T12:32:21.493Z,2.22
2023-02-02T12:34:57.597Z,2.35
2023-02-02T12:37:43.448Z,2.35
2023-02-02T12:40:51.677Z,1.92
2023-02-02T12:43:27.658Z,1.80
2023-02-02T12:46:14.607Z,1.92
2023-02-02T12:48:52.257Z,2.65
2023-02-02T12:51:44.284Z,2.40
2023-02-02T12:54:48.718Z,2.17
2023-02-02T12:57:37.909Z,2.42
2023-02-02T13:00:53.397Z,2.53
2023-02-02T13:03:37.372Z,1.90
2023-02-02T13:06:19.490Z,2.50
2023-02-02T13:11:42.093Z,2.13
2023-02-02T13:14:27.060Z,1.88
2023-02-02T13:17:00.124Z,1.77
2023-02-02T13:19:45.878Z,2.95
2023-02-02T13:22:23.860Z,1.52
2023-02-02T13:24:55.658Z,2.05
2023-02-02T13:27:24.468Z,1.95
2023-02-02T13:29:57.604Z,1.73
2023-02-02T13:32:32.874Z,2.38
2023-02-02T13:35:25.493Z,1.65
2023-02-02T13:38:04.231Z,1.60
2023-02-02T13:40:38.995Z,2.20
2023-02-02T13:43:29.088Z,1.67
2023-02-02T13:46:12.051Z,1.70
2023-02-02T13:48:49.130Z,2.40
2023-02-02T13:51:39.382Z,2.30
2023-02-02T13:54:31.605Z,1.77
2023-02-02T13:57:35.761Z,1.90
2023-02-02T14:00:25.507Z,2.08
2023-02-02T14:02:58.345Z,2.08
2023-02-02T14:05:31.193Z,2.00
2023-02-02T14:08:07.697Z,1.40
2023-02-02T14:10:42.344Z,1.75
2023-02-02T14:13:45.811Z,1.95
2023-02-02T14:16:44.303Z,1.95
2023-02-02T14:19:17.167Z,2.53
2023-02-02T14:21:44.113Z,2.20
2023-02-02T14:24:26.325Z,2.20
2023-02-02T14:27:10.153Z,1.80
2023-02-02T14:29:57.107Z,2.30
2023-02-02T14:32:30.606Z,1.73
2023-02-02T14:35:00.065Z,2.00
2023-02-02T14:37:26.969Z,1.65
2023-02-02T14:40:08.867Z,1.80
2023-02-02T14:43:19.420Z,2.33
2023-02-02T14:46:10.857Z,2.70
2023-02-02T14:48:41.787Z,1.85
2023-02-02T14:51:17.972Z,2.03
2023-02-02T14:54:18.756Z,1.95
2023-02-02T14:56:52.129Z,1.70
2023-02-02T14:59:33.999Z,2.33
2023-02-02T15:02:13.302Z,2.22
2023-02-02T15:04:50.229Z,1.33
2023-02-02T15:07:38.226Z,1.67
2023-02-02T15:10:05.928Z,1.30
2023-02-02T15:12:45.624Z,2.72
2023-02-02T15:15:31.022Z,1.85
2023-02-02T15:18:13.506Z,2.00
2023-02-02T15:20:52.174Z,1.70
2023-02-02T15:23:34.428Z,2.00
2023-02-02T15:26:12.816Z,2.53
2023-02-02T15:28:51.394Z,2.47
2023-02-02T15:31:46.892Z,1.77
2023-02-02T15:34:42.418Z,1.60
2023-02-02T15:37:15.944Z,2.08
2023-02-02T15:39:52.026Z,1.70
2023-02-02T15:42:54.616Z,2.05
2023-02-02T15:45:31.463Z,1.58
2023-02-02T15:47:59.960Z,2.00
2023-02-02T15:50:27.900Z,1.88
2023-02-02T15:52:57.298Z,2.08
2023-02-02T15:55:29.955Z,1.90
2023-02-02T15:57:57.019Z,1.98
2023-02-02T16:00:26.475Z,1.75
2023-02-02T16:03:00.638Z,1.88
2023-02-02T16:05:36.850Z,2.25
2023-02-02T16:08:13.853Z,1.92
2023-02-02T16:10:41.157Z,1.73
2023-02-02T16:13:20.573Z,2.03
2023-02-02T16:16:02.361Z,1.80
2023-02-02T16:18:30.433Z,2.10
2023-02-02T16:21:01.412Z,2.13
2023-02-02T16:23:33.637Z,1.77
2023-02-02T16:28:33.066Z,2.03
2023-02-02T16:31:01.726Z,1.60
2023-02-02T16:33:42.931Z,2.40
2023-02-02T16:36:26.861Z,1.75
2023-02-02T16:38:55.745Z,1.80
2023-02-02T16:41:35.079Z,1.38
2023-02-02T16:44:41.284Z,2.60
2023-02-02T16:47:32.663Z,2.10
2023-02-02T16:50:16.700Z,2.60
2023-02-02T16:53:19.596Z,1.90
2023-02-02T16:55:51.361Z,2.17
2023-02-02T16:58:22.842Z,2.35
2023-02-02T17:01:16.068Z,2.00
2023-02-02T17:03:54.761Z,2.78
2023-02-02T17:06:50.206Z,3.03
2023-02-02T17:09:40.865Z,2.35
2023-02-02T17:12:32.221Z,2.17
2023-02-02T17:17:33.936Z,2.53
2023-02-02T17:20:01.827Z,3.35
2023-02-02T17:22:32.565Z,2.75
2023-02-02T17:25:02.854Z,3.40
2023-02-02T17:27:35.192Z,2.40
2023-02-02T17:32:30.273Z,2.53
2023-02-02T17:34:58.203Z,3.40
2023-02-02T17:37:25.844Z,2.60
2023-02-02T17:39:57.110Z,3.00
2023-02-02T17:42:27.859Z,3.27
2023-02-02T17:44:58.610Z,3.65
2023-02-02T17:47:25.944Z,2.80
2023-02-02T17:49:52.998Z,3.15
2023-02-02T17:52:19.954Z,3.30
2023-02-02T17:54:46.962Z,2.88
2023-02-02T17:57:15.468Z,3.72
2023-02-02T17:59:42.538Z,3.08
2023-02-02T18:02:15.245Z,3.53
2023-02-02T18:04:45.275Z,3.08
2023-02-02T18:07:15.721Z,4.33
2023-02-02T18:09:42.855Z,3.70
2023-02-02T18:12:12.763Z,3.70
2023-02-02T18:14:40.800Z,3.28
2023-02-02T18:17:09.580Z,4.43
2023-02-02T18:19:36.903Z,3.70
2023-02-02T18:22:04.547Z,3.85
2023-02-02T18:24:32.524Z,3.85
2023-02-02T18:27:01.705Z,3.90
2023-02-02T18:29:29.949Z,3.85
2023-02-02T18:31:59.134Z,3.95
2023-02-02T18:34:30.436Z,3.92
2023-02-02T18:36:58.884Z,3.83
2023-02-02T18:39:26.364Z,3.33
2023-02-02T18:41:54.061Z,3.67
2023-02-02T18:44:22.878Z,3.80
2023-02-02T18:46:53.239Z,3.72
2023-02-02T18:49:22.768Z,4.90
2023-02-02T18:51:50.718Z,3.65
2023-02-02T18:54:17.673Z,3.88
2023-02-02T18:56:44.644Z,4.20
2023-02-02T18:59:12.092Z,3.58
2023-02-02T19:01:40.264Z,3.70
2023-02-02T19:04:08.185Z,4.93
2023-02-02T19:06:53.598Z,4.68
2023-02-02T19:09:22.680Z,3.90
2023-02-02T19:11:51.790Z,3.47
2023-02-02T19:14:24.888Z,3.50
2023-02-02T19:16:52.867Z,3.63
2023-02-02T19:19:29.237Z,3.80
2023-02-02T19:21:59.932Z,3.67
2023-02-02T19:24:39.911Z,4.10
2023-02-02T19:27:21.952Z,3.92
2023-02-02T19:29:56.264Z,4.00
2023-02-02T19:32:26.204Z,3.45
2023-02-02T19:34:58.684Z,3.58
2023-02-02T19:37:32.366Z,4.45
2023-02-02T19:40:08.577Z,3.75
2023-02-02T19:42:38.771Z,5.00
2023-02-02T19:45:21.322Z,4.10
2023-02-02T19:47:48.789Z,3.75
2023-02-02T19:50:18.944Z,4.05
2023-02-02T19:52:48.271Z,4.15
2023-02-02T19:55:28.054Z,4.07
2023-02-02T19:58:01.283Z,4.75
2023-02-02T20:00:31.516Z,4.88
2023-02-02T20:02:59.990Z,4.15
2023-02-02T20:05:32.125Z,4.38
2023-02-02T20:08:05.644Z,4.60
2023-02-02T20:10:42.618Z,3.78
2023-02-02T20:13:29.771Z,4.50
2023-02-02T20:16:03.703Z,4.57
2023-02-02T20:18:44.381Z,4.20
2023-02-02T20:21:36.558Z,3.65
2023-02-02T20:24:04.384Z,4.40
2023-02-02T20:26:38.380Z,4.50
2023-02-02T20:29:40.239Z,4.30
2023-02-02T20:32:19.331Z,4.33
2023-02-02T20:34:46.724Z,3.75
2023-02-02T20:37:13.699Z,4.45
2023-02-02T20:39:50.667Z,4.22
2023-02-02T20:42:17.932Z,4.35
2023-02-02T20:44:47.166Z,4.05
2023-02-02T20:47:14.052Z,4.45
2023-02-02T20:49:41.006Z,4.25
2023-02-02T20:52:13.814Z,4.97
2023-02-02T20:54:41.064Z,4.72
2023-02-02T20:57:08.065Z,4.53
2023-02-02T20:59:35.825Z,3.78
2023-02-02T21:02:03.679Z,4.57
2023-02-02T21:04:35.682Z,4.63
2023-02-02T21:07:02.877Z,4.10
2023-02-02T21:09:29.933Z,4.28
2023-02-02T21:11:56.989Z,3.97
2023-02-02T21:14:24.112Z,3.95
2023-02-02T21:16:55.421Z,4.00
2023-02-02T21:19:29.433Z,3.88
2023-02-02T21:21:57.013Z,4.30
2023-02-02T21:24:25.058Z,4.13
2023-02-02T21:26:54.716Z,4.07
2023-02-02T21:29:22.385Z,3.65
2023-02-02T21:31:49.913Z,3.53
2023-02-02T21:34:18.905Z,3.28
2023-02-02T21:36:48.173Z,3.97
2023-02-02T21:39:33.500Z,4.05
2023-02-02T21:42:12.866Z,3.38
2023-02-02T21:44:43.516Z,3.55
2023-02-02T21:47:23.404Z,2.83
2023-02-02T21:49:50.269Z,3.40
2023-02-02T21:52:19.661Z,3.33
2023-02-02T21:54:48.243Z,3.22
2023-02-02T21:57:27.931Z,3.35
2023-02-02T21:59:56.463Z,2.80
2023-02-02T22:02:38.221Z,3.97
2023-02-02T22:05:24.640Z,3.17
2023-02-02T22:07:53.456Z,3.45
2023-02-02T22:10:38.932Z,3.35
2023-02-02T22:13:38.264Z,3.10
2023-02-02T22:16:21.194Z,3.40
2023-02-02T22:18:48.399Z,3.88
2023-02-02T22:21:20.590Z,3.30
2023-02-02T22:23:47.986Z,2.47
2023-02-02T22:26:47.731Z,2.97
2023-02-02T22:29:18.307Z,3.20
2023-02-02T22:31:45.411Z,2.95
2023-02-02T22:34:12.472Z,2.63
2023-02-02T22:36:39.448Z,3.08
2023-02-02T22:39:06.373Z,3.03
2023-02-02T22:41:33.678Z,2.67
2023-02-02T22:44:00.609Z,2.55
2023-02-02T22:46:27.682Z,2.58
2023-02-02T22:48:55.509Z,2.67
2023-02-02T22:51:22.441Z,2.47
2023-02-02T22:53:49.425Z,2.80
2023-02-02T22:56:16.437Z,2.17
2023-02-02T22:58:43.525Z,2.50
2023-02-02T23:01:11.896Z,2.15
2023-02-02T23:03:38.849Z,3.05
2023-02-02T23:06:05.789Z,1.92
2023-02-02T23:08:33.017Z,2.17
2023-02-02T23:11:00.243Z,2.25
2023-02-02T23:13:27.240Z,2.25
2023-02-02T23:15:54.220Z,2.60
2023-02-02T23:18:21.132Z,2.90
2023-02-02T23:20:48.877Z,2.97
2023-02-02T23:23:15.835Z,2.75
2023-02-02T23:25:42.975Z,2.28
2023-02-02T23:28:10.544Z,2.33
2023-02-02T23:30:38.165Z,2.55
2023-02-02T23:33:05.136Z,2.22
2023-02-02T23:35:31.937Z,2.67
2023-02-02T23:38:00.434Z,2.33
2023-02-02T23:40:27.947Z,2.42
2023-02-02T23:42:55.164Z,2.03
2023-02-02T23:45:22.173Z,2.50
2023-02-02T23:47:49.044Z,2.10
2023-02-02T23:50:16.118Z,2.28
2023-02-02T23:52:43.206Z,2.30
2023-02-02T23:55:11.329Z,2.85
2023-02-02T23:57:38.786Z,2.38
